Time;durP1;ratioP1;P1;durP2;ratioP2;P2;SDS_P1;SDS_P2;PMS_P1;PMS_P2;Temp;Humidity;BMP_temperature;BMP_pressure;BME280_temperature;BME280_humidity;BME280_pressure;Samples;Min_cycle;Max_cycle;Signal;HPM_P1;HPM_P2
2023/02/12 00:00:37;;;;;;;1999.90;999.90;;;3.50;99.90;;;;;;5091652;28;20028;-73
2023/02/12 00:03:03;;;;;;;1999.90;999.90;;;3.60;99.90;;;;;;5092825;28;20024;-73
2023/02/12 00:05:30;;;;;;;1999.90;999.90;;;3.60;99.90;;;;;;5092937;28;20024;-73
2023/02/12 00:07:55;;;;;;;1999.90;999.90;;;3.60;99.90;;;;;;5092580;28;20056;-73
2023/02/12 00:10:21;;;;;;;1999.90;999.90;;;3.60;99.90;;;;;;5092659;28;20109;-73
2023/02/12 00:12:47;;;;;;;1999.90;999.90;;;3.50;99.90;;;;;;5092532;28;20021;-73
2023/02/12 00:15:13;;;;;;;1999.90;999.90;;;3.50;99.90;;;;;;5092819;28;20028;-73
2023/02/12 00:17:38;;;;;;;1999.90;999.90;;;3.50;99.90;;;;;;5092702;28;20024;-73
2023/02/12 00:20:04;;;;;;;1999.90;999.90;;;3.40;99.90;;;;;;5091296;28;20034;-73
2023/02/12 00:22:30;;;;;;;1999.90;999.90;;;3.40;99.90;;;;;;5092647;28;20452;-81
2023/02/12 00:24:56;;;;;;;1999.90;999.90;;;3.40;99.90;;;;;;5090667;28;20116;-73
2023/02/12 00:27:23;;;;;;;1999.90;999.90;;;3.30;99.90;;;;;;5092485;28;20100;-72
2023/02/12 00:29:48;;;;;;;1999.90;999.90;;;3.20;99.90;;;;;;5092450;28;20077;-73
2023/02/12 00:32:18;;;;;;;1999.90;999.90;;;3.20;99.90;;;;;;5057568;28;20020;-73
2023/02/12 00:34:45;;;;;;;1999.90;999.90;;;3.10;99.90;;;;;;5054048;28;20078;-73
2023/02/12 00:37:10;;;;;;;1999.90;999.90;;;3.10;99.90;;;;;;5075160;28;20028;-73
2023/02/12 00:39:36;;;;;;;1999.90;999.90;;;3.00;99.90;;;;;;5092228;28;20506;-73
2023/02/12 00:42:03;;;;;;;1999.90;999.90;;;3.00;99.90;;;;;;5092136;28;20526;-73
2023/02/12 00:44:28;;;;;;;1999.90;999.90;;;3.00;99.90;;;;;;5092308;28;20047;-73
2023/02/12 00:46:54;;;;;;;1999.90;999.90;;;2.90;99.90;;;;;;5053880;28;20516;-80
2023/02/12 00:49:20;;;;;;;1999.90;999.90;;;2.90;99.90;;;;;;5072263;28;20024;-80
2023/02/12 00:51:45;;;;;;;1999.90;999.90;;;2.90;99.90;;;;;;5071984;28;20099;-73
2023/02/12 00:54:11;;;;;;;1999.90;999.90;;;2.80;99.90;;;;;;5071774;28;20024;-73
2023/02/12 00:56:36;;;;;;;1999.90;999.90;;;2.80;99.90;;;;;;5071608;28;20064;-73
2023/02/12 00:59:02;;;;;;;1999.90;999.90;;;2.80;99.90;;;;;;5071225;28;20032;-73
2023/02/12 01:01:28;;;;;;;1999.90;999.90;;;2.70;99.90;;;;;;5072154;28;20145;-73
2023/02/12 01:03:53;;;;;;;1999.90;999.90;;;2.60;99.90;;;;;;5071826;28;20105;-80
2023/02/12 01:06:19;;;;;;;1999.90;999.90;;;2.60;99.90;;;;;;5071900;28;20021;-73
2023/02/12 01:08:48;;;;;;;1999.90;999.90;;;2.60;99.90;;;;;;5071720;28;20046;-73
2023/02/12 01:11:14;;;;;;;1999.90;999.90;;;2.50;99.90;;;;;;5071836;28;20583;-72
2023/02/12 01:13:39;;;;;;;1999.90;999.90;;;2.50;99.90;;;;;;5071683;28;20112;-80
2023/02/12 01:16:17;;;;;;;1999.90;999.90;;;2.50;99.90;;;;;;5071648;28;20029;-81
2023/02/12 01:18:44;;;;;;;1999.90;999.90;;;2.50;99.90;;;;;;5071067;28;20025;-73
2023/02/12 01:21:12;;;;;;;1999.90;999.90;;;2.40;99.90;;;;;;5071878;28;20032;-73
2023/02/12 01:23:38;;;;;;;1999.90;999.90;;;2.40;99.90;;;;;;5071772;28;20031;-81
2023/02/12 01:26:04;;;;;;;1999.90;999.90;;;2.40;99.90;;;;;;5071282;28;20025;-80
2023/02/12 01:28:29;;;;;;;1999.90;999.90;;;2.50;99.90;;;;;;5071380;28;20025;-81
2023/02/12 01:30:55;;;;;;;1999.90;999.90;;;2.50;99.90;;;;;;5071164;28;20070;-73
2023/02/12 01:33:21;;;;;;;1999.90;999.90;;;2.60;99.90;;;;;;5071758;28;20048;-73
2023/02/12 01:35:46;;;;;;;1999.90;999.90;;;2.60;99.90;;;;;;5053502;28;20060;-72
2023/02/12 01:38:12;;;;;;;1999.90;999.90;;;2.70;99.90;;;;;;5052920;28;20031;-73
2023/02/12 01:40:37;;;;;;;1999.90;999.90;;;2.70;99.90;;;;;;5037350;28;20044;-79
2023/02/12 01:43:05;;;;;;;1999.90;999.90;;;2.80;99.90;;;;;;5055323;28;20032;-80
2023/02/12 01:45:52;;;;;;;1999.90;999.90;;;2.80;99.90;;;;;;5075192;28;20092;-73
2023/02/12 01:48:19;;;;;;;1999.90;999.90;;;2.70;99.90;;;;;;5115679;28;20020;-73
2023/02/12 01:50:48;;;;;;;1999.90;999.90;;;2.80;99.90;;;;;;5115704;28;20088;-72
2023/02/12 01:53:19;;;;;;;1999.90;999.90;;;2.70;99.90;;;;;;5097254;28;20032;-80
2023/02/12 01:55:47;;;;;;;1999.90;999.90;;;2.70;99.90;;;;;;5116051;28;20020;-80
2023/02/12 01:58:13;;;;;;;1999.90;999.90;;;2.70;99.90;;;;;;5115471;28;20035;-73
2023/02/12 02:00:39;;;;;;;1999.90;999.90;;;2.60;99.90;;;;;;5096508;28;20501;-73
2023/02/12 02:03:05;;;;;;;1999.90;999.90;;;2.60;99.90;;;;;;5115591;28;20051;-73
2023/02/12 02:05:51;;;;;;;1999.90;999.90;;;2.50;99.90;;;;;;5115413;28;20024;-80
2023/02/12 02:08:17;;;;;;;1999.90;999.90;;;2.50;99.90;;;;;;5096993;28;20411;-80
2023/02/12 02:10:43;;;;;;;1999.90;999.90;;;2.40;99.90;;;;;;5115074;28;20030;-73
2023/02/12 02:15:58;;;;;;;1999.90;999.90;;;2.50;99.90;;;;;;5115682;28;20035;-73
2023/02/12 02:19:20;;;;;;;1999.90;999.90;;;2.50;99.90;;;;;;5115061;28;20027;-80
2023/02/12 02:22:05;;;;;;;1999.90;999.90;;;2.50;99.90;;;;;;4992779;28;20045;-80
2023/02/12 02:24:49;;;;;;;1999.90;999.90;;;2.50;99.90;;;;;;5012555;28;20061;-73
2023/02/12 02:27:18;;;;;;;1999.90;999.90;;;2.50;99.90;;;;;;5012632;28;20026;-73
2023/02/12 02:29:53;;;;;;;1999.90;999.90;;;2.40;99.90;;;;;;5012507;28;20030;-73
2023/02/12 02:32:30;;;;;;;1999.90;999.90;;;2.40;99.90;;;;;;4993719;28;20176;-73
2023/02/12 02:35:17;;;;;;;1999.90;999.90;;;2.40;99.90;;;;;;4991837;28;20072;-80
2023/02/12 02:37:53;;;;;;;1999.90;999.90;;;2.40;99.90;;;;;;4992531;28;20454;-73
2023/02/12 02:40:25;;;;;;;1999.90;999.90;;;2.30;99.90;;;;;;4992496;28;20034;-73
2023/02/12 02:42:59;;;;;;;1999.90;999.90;;;2.30;99.90;;;;;;4992505;28;20042;-72
2023/02/12 02:45:34;;;;;;;1999.90;999.90;;;2.30;99.90;;;;;;4986478;28;20457;-80
2023/02/12 02:48:13;;;;;;;1999.90;999.90;;;2.30;99.90;;;;;;4991971;28;20569;-73
2023/02/12 02:50:43;;;;;;;1999.90;999.90;;;2.30;99.90;;;;;;4992380;28;20026;-73
2023/02/12 02:53:19;;;;;;;1999.90;999.90;;;2.20;99.90;;;;;;4992636;28;20033;-73
2023/02/12 02:55:55;;;;;;;1999.90;999.90;;;2.20;99.90;;;;;;5057675;28;20029;-73
2023/02/12 02:58:26;;;;;;;1999.90;999.90;;;2.10;99.90;;;;;;5094092;28;20510;-81
2023/02/12 03:01:22;;;;;;;1999.90;999.90;;;2.10;99.90;;;;;;5093217;28;20031;-80
2023/02/12 03:04:04;;;;;;;1999.90;999.90;;;2.10;99.90;;;;;;5093514;28;20122;-73
2023/02/12 03:06:38;;;;;;;1999.90;999.90;;;2.20;99.90;;;;;;5075793;28;20036;-73
2023/02/12 03:09:14;;;;;;;1999.90;999.90;;;2.10;99.90;;;;;;5093594;28;20300;-73
2023/02/12 03:11:40;;;;;;;1999.90;999.90;;;2.20;99.90;;;;;;5094016;28;20052;-73
2023/02/12 03:14:31;;;;;;;1999.90;999.90;;;2.20;99.90;;;;;;5093549;28;20023;-80
2023/02/12 03:17:04;;;;;;;1999.90;999.90;;;2.20;99.90;;;;;;5093508;28;20036;-73
2023/02/12 03:19:32;;;;;;;;;;;2.20;99.90;;;;;;5094201;28;20026;-73
2023/02/12 03:22:09;;;;;;;1999.90;999.90;;;2.30;99.90;;;;;;5075033;28;19927;-82
2023/02/12 03:24:38;;;;;;;1999.90;999.90;;;2.20;99.90;;;;;;5093434;28;20035;-79
2023/02/12 03:27:14;;;;;;;1999.90;999.90;;;2.20;99.90;;;;;;5093294;28;20472;-73
2023/02/12 03:29:40;;;;;;;1999.90;999.90;;;2.30;99.90;;;;;;5093744;28;20048;-73
2023/02/12 03:32:24;;;;;;;1999.90;999.90;;;2.30;99.90;;;;;;5075916;28;20067;-73
2023/02/12 03:34:54;;;;;;;1999.90;999.90;;;2.20;99.90;;;;;;5072990;28;20024;-73
2023/02/12 03:37:27;;;;;;;1999.90;999.90;;;2.20;99.90;;;;;;5073020;28;20028;-80
2023/02/12 03:39:59;;;;;;;1999.90;999.90;;;2.30;99.90;;;;;;5073120;28;20093;-80
2023/02/12 03:42:33;;;;;;;1999.90;999.90;;;2.30;99.90;;;;;;5072912;28;20029;-73
2023/02/12 03:45:15;;;;;;;1999.90;999.90;;;2.30;99.90;;;;;;5072493;28;20055;-73
2023/02/12 03:47:50;;;;;;;1999.90;999.90;;;2.30;99.90;;;;;;5072759;28;20032;-73
2023/02/12 03:50:15;;;;;;;1999.90;999.90;;;2.30;99.90;;;;;;5072811;28;20032;-80
2023/02/12 03:52:42;;;;;;;1999.90;999.90;;;2.30;99.90;;;;;;5054715;28;20025;-73
2023/02/12 03:55:09;;;;;;;1999.90;999.90;;;2.30;99.90;;;;;;5072763;28;20040;-73
2023/02/12 03:57:48;;;;;;;1999.90;999.90;;;2.30;99.90;;;;;;5072707;28;20461;-73
2023/02/12 04:00:18;;;;;;;1999.90;999.90;;;2.30;99.90;;;;;;5071841;28;20024;-73
2023/02/12 04:02:44;;;;;;;1999.90;999.90;;;2.20;99.90;;;;;;5071993;28;20070;-80
2023/02/12 04:05:36;;;;;;;1999.90;999.90;;;2.30;99.90;;;;;;5072651;28;20036;-80
2023/02/12 04:08:05;;;;;;;1999.90;999.90;;;2.20;99.90;;;;;;5067807;28;20052;-72
2023/02/12 04:11:02;;;;;;;1999.90;999.90;;;2.20;99.90;;;;;;5072329;28;20032;-72
2023/02/12 04:13:52;;;;;;;1999.90;999.90;;;2.30;99.90;;;;;;5072632;28;20024;-73
2023/02/12 04:16:43;;;;;;;1999.90;999.90;;;2.30;99.90;;;;;;5072256;28;20028;-80
2023/02/12 04:19:13;;;;;;;1999.90;999.90;;;2.30;99.90;;;;;;5072578;28;20029;-73
2023/02/12 04:22:10;;;;;;;1999.90;999.90;;;2.30;99.90;;;;;;5072524;28;20025;-73
2023/02/12 04:25:05;;;;;;;1999.90;999.90;;;2.20;99.90;;;;;;5072217;28;20089;-73
2023/02/12 04:27:51;;;;;;;1999.90;999.90;;;2.20;99.90;;;;;;5072374;28;20064;-80
2023/02/12 04:30:26;;;;;;;1999.90;999.90;;;2.10;99.90;;;;;;5052063;28;20453;-73
2023/02/12 04:32:58;;;;;;;1999.90;999.90;;;2.00;99.90;;;;;;5052069;28;20024;-73
2023/02/12 04:35:34;;;;;;;1999.90;999.90;;;2.00;99.90;;;;;;5052155;28;20029;-73
2023/02/12 04:38:18;;;;;;;1999.90;999.90;;;2.00;99.90;;;;;;5061416;28;20016;-73
2023/02/12 04:40:44;;;;;;;1999.90;999.90;;;1.90;99.90;;;;;;5071939;28;20085;-79
2023/02/12 04:43:10;;;;;;;1999.90;999.90;;;1.80;99.90;;;;;;5071782;28;20024;-80
2023/02/12 04:45:36;;;;;;;1999.90;999.90;;;1.80;99.90;;;;;;5062719;28;20044;-73
2023/02/12 04:48:03;;;;;;;1999.90;999.90;;;1.70;99.90;;;;;;5092182;28;20555;-73
2023/02/12 04:50:40;;;;;;;1999.90;999.90;;;1.70;99.90;;;;;;5092075;28;20023;-73
2023/02/12 04:53:07;;;;;;;1999.90;999.90;;;1.70;99.90;;;;;;5092139;28;20026;-73
2023/02/12 04:55:32;;;;;;;1999.90;999.90;;;1.60;99.90;;;;;;5092470;28;20023;-73
2023/02/12 04:57:58;;;;;;;1999.90;999.90;;;1.60;99.90;;;;;;5092130;28;20028;-80
2023/02/12 05:00:24;;;;;;;1999.90;999.90;;;1.60;99.90;;;;;;5091957;28;20031;-72
2023/02/12 05:02:49;;;;;;;1999.90;999.90;;;1.60;99.90;;;;;;5091347;28;20028;-73
2023/02/12 05:05:15;;;;;;;1999.90;999.90;;;1.60;99.90;;;;;;5092325;28;20531;-73
2023/02/12 05:07:41;;;;;;;1999.90;999.90;;;1.50;99.90;;;;;;5092160;28;20062;-80
2023/02/12 05:10:07;;;;;;;1999.90;999.90;;;1.60;99.90;;;;;;5092030;28;20024;-73
2023/02/12 05:12:32;;;;;;;1999.90;999.90;;;1.50;99.90;;;;;;5095661;28;20366;-73
2023/02/12 05:14:58;;;;;;;1999.90;999.90;;;1.50;99.90;;;;;;5096033;28;20027;-73
2023/02/12 05:17:24;;;;;;;1999.90;999.90;;;1.50;99.90;;;;;;5096356;28;20058;-72
2023/02/12 05:19:50;;;;;;;1999.90;999.90;;;1.50;99.90;;;;;;5096109;28;20046;-80
2023/02/12 05:22:16;;;;;;;1999.90;999.90;;;1.50;99.90;;;;;;5077799;28;20444;-80
2023/02/12 05:24:42;;;;;;;1999.90;999.90;;;1.50;99.90;;;;;;5077612;28;20028;-73
2023/02/12 05:27:08;;;;;;;1999.90;999.90;;;1.50;99.90;;;;;;5095696;28;20397;-73
2023/02/12 05:29:34;;;;;;;1999.90;999.90;;;1.50;99.90;;;;;;5096021;28;20020;-73
2023/02/12 05:32:00;;;;;;;1999.90;999.90;;;1.40;99.90;;;;;;5079300;28;20024;-73
2023/02/12 05:34:27;;;;;;;1999.90;999.90;;;1.40;99.90;;;;;;5075308;28;20104;-73
2023/02/12 05:36:53;;;;;;;1999.90;999.90;;;1.40;99.90;;;;;;5075459;28;20043;-79
2023/02/12 05:39:18;;;;;;;1999.90;999.90;;;1.40;99.90;;;;;;5095494;28;20476;-73
2023/02/12 05:41:44;;;;;;;1999.90;999.90;;;1.40;99.90;;;;;;5095738;28;20043;-73
2023/02/12 05:44:14;;;;;;;1999.90;999.90;;;1.40;99.90;;;;;;5095478;28;20035;-72
2023/02/12 05:46:40;;;;;;;1999.90;999.90;;;1.40;99.90;;;;;;5095235;28;20075;-80
2023/02/12 05:49:06;;;;;;;1999.90;999.90;;;1.50;99.90;;;;;;5095433;28;20020;-80
2023/02/12 05:51:32;;;;;;;1999.90;999.90;;;1.50;99.90;;;;;;5095608;28;20028;-73
2023/02/12 05:54:00;;;;;;;1999.90;999.90;;;1.50;99.90;;;;;;5095443;28;20396;-73
2023/02/12 05:56:31;;;;;;;1999.90;999.90;;;1.40;99.90;;;;;;5094169;28;20408;-73
2023/02/12 05:59:04;;;;;;;1999.90;999.90;;;1.40;99.90;;;;;;5093865;28;20088;-80
2023/02/12 06:01:39;;;;;;;1999.90;999.90;;;1.50;99.90;;;;;;5095405;28;20020;-80
2023/02/12 06:04:09;;;;;;;1999.90;999.90;;;1.40;99.90;;;;;;5094615;28;20032;-73
2023/02/12 06:06:35;;;;;;;1999.90;999.90;;;1.50;99.90;;;;;;5093746;28;20047;-72
2023/02/12 06:09:01;;;;;;;1999.90;999.90;;;1.40;99.90;;;;;;5093716;28;20029;-73
2023/02/12 06:11:27;;;;;;;1999.90;999.90;;;1.40;99.90;;;;;;5095348;28;20036;-79
2023/02/12 06:13:53;;;;;;;1999.90;999.90;;;1.30;99.90;;;;;;5095001;28;20529;-80
2023/02/12 06:16:21;;;;;;;1999.90;999.90;;;1.30;99.90;;;;;;5094922;28;20016;-80
2023/02/12 06:18:48;;;;;;;1999.90;999.90;;;1.30;99.90;;;;;;5094767;28;20028;-73
2023/02/12 06:21:14;;;;;;;1999.90;999.90;;;1.30;99.90;;;;;;5094914;28;20032;-72
2023/02/12 06:23:40;;;;;;;1999.90;999.90;;;1.30;99.90;;;;;;5094188;28;20476;-73
2023/02/12 06:26:06;;;;;;;1999.90;999.90;;;1.30;99.90;;;;;;5094621;28;20038;-80
2023/02/12 06:28:31;;;;;;;1999.90;999.90;;;1.20;99.90;;;;;;5094550;28;20028;-73
2023/02/12 06:30:57;;;;;;;1999.90;999.90;;;1.20;99.90;;;;;;5086812;28;20035;-73
2023/02/12 06:33:22;;;;;;;1999.90;999.90;;;1.20;99.90;;;;;;5073240;28;20112;-73
2023/02/12 06:35:48;;;;;;;1999.90;999.90;;;1.10;99.90;;;;;;5074365;28;20024;-73
2023/02/12 06:38:14;;;;;;;1999.90;999.90;;;1.10;99.90;;;;;;5067366;28;20028;-80
2023/02/12 06:40:40;;;;;;;1999.90;999.90;;;1.10;99.90;;;;;;5094118;28;20408;-80
2023/02/12 06:43:06;;;;;;;1999.90;999.90;;;1.00;99.90;;;;;;5076279;28;20055;-73
2023/02/12 06:45:32;;;;;;;1999.90;999.90;;;1.00;99.90;;;;;;5094550;28;20063;-73
2023/02/12 06:47:58;;;;;;;1999.90;999.90;;;1.00;99.90;;;;;;5094351;28;20476;-73
2023/02/12 06:50:23;;;;;;;1999.90;999.90;;;1.00;99.90;;;;;;5093730;28;20103;-73
2023/02/12 06:52:49;;;;;;;1999.90;999.90;;;1.00;99.90;;;;;;5093942;28;20574;-73
2023/02/12 06:55:15;;;;;;;1999.90;999.90;;;1.00;99.90;;;;;;5094452;28;20061;-80
2023/02/12 06:57:41;;;;;;;1999.90;999.90;;;1.00;99.90;;;;;;5094291;28;20552;-73
2023/02/12 07:00:08;;;;;;;1999.90;999.90;;;1.00;99.90;;;;;;5094072;28;20020;-73
2023/02/12 07:02:33;;;;;;;1999.90;999.90;;;1.00;99.90;;;;;;5093606;28;20024;-73
2023/02/12 07:04:59;;;;;;;1999.90;999.90;;;1.00;99.90;;;;;;5092259;28;20032;-80
2023/02/12 07:07:24;;;;;;;1999.90;999.90;;;1.00;99.90;;;;;;5092925;28;20032;-80
2023/02/12 07:09:50;;;;;;;1999.90;999.90;;;1.00;99.90;;;;;;5094040;28;20032;-73
2023/02/12 07:12:16;;;;;;;1999.90;999.90;;;0.90;99.90;;;;;;5093673;28;20095;-73
2023/02/12 07:14:41;;;;;;;1999.90;999.90;;;0.90;99.90;;;;;;5093702;28;20032;-73
2023/02/12 07:17:08;;;;;;;1999.90;999.90;;;0.90;99.90;;;;;;5093073;28;20102;-80
2023/02/12 07:19:34;;;;;;;1999.90;999.90;;;0.90;99.90;;;;;;5094078;28;20032;-80
2023/02/12 07:22:00;;;;;;;1999.90;999.90;;;0.90;99.90;;;;;;5093823;28;20078;-73
2023/02/12 07:24:26;;;;;;;1999.90;999.90;;;0.90;99.90;;;;;;5093614;28;20028;-73
2023/02/12 07:26:52;;;;;;;1999.90;999.90;;;0.90;99.90;;;;;;5093343;28;20476;-73
2023/02/12 07:29:17;;;;;;;1999.90;999.90;;;0.90;99.90;;;;;;5091921;28;20020;-72
2023/02/12 07:31:43;;;;;;;1999.90;999.90;;;0.90;99.90;;;;;;5079391;28;20032;-80
2023/02/12 07:34:09;;;;;;;1999.90;999.90;;;1.00;99.90;;;;;;5073114;28;20024;-80
2023/02/12 07:36:35;;;;;;;1999.90;999.90;;;1.00;99.90;;;;;;5073046;28;20032;-73
2023/02/12 07:39:01;;;;;;;1999.90;999.90;;;1.00;99.90;;;;;;5091086;28;20081;-73
2023/02/12 07:41:32;;;;;;;1999.90;999.90;;;1.00;99.90;;;;;;5093365;28;20028;-72
2023/02/12 07:44:02;;;;;;;1999.90;999.90;;;1.10;99.90;;;;;;5093255;28;20035;-80
2023/02/12 07:46:35;;;;;;;1999.90;999.90;;;1.20;99.90;;;;;;5092944;28;20050;-80
2023/02/12 07:49:04;;;;;;;1999.90;999.90;;;1.20;99.90;;;;;;5093160;28;20056;-73
2023/02/12 07:51:31;;;;;;;1999.90;999.90;;;1.30;99.90;;;;;;5093270;28;20051;-73
2023/02/12 07:53:57;;;;;;;1999.90;999.90;;;1.40;99.90;;;;;;5093072;28;20059;-73
2023/02/12 07:56:29;;;;;;;1999.90;999.90;;;1.40;99.90;;;;;;5092823;28;20055;-81
2023/02/12 07:58:56;;;;;;;1999.90;999.90;;;1.50;99.90;;;;;;5092876;28;20114;-80
2023/02/12 08:01:28;;;;;;;1999.90;999.90;;;1.50;99.90;;;;;;5093067;28;20039;-73
2023/02/12 08:04:02;;;;;;;1999.90;999.90;;;1.60;99.90;;;;;;5092458;28;20137;-73
2023/02/12 08:06:30;;;;;;;1999.90;999.90;;;1.70;99.90;;;;;;5092805;28;20369;-73
2023/02/12 08:08:58;;;;;;;1999.90;999.90;;;1.80;99.90;;;;;;5092607;28;20028;-80
2023/02/12 08:11:25;;;;;;;1999.90;999.90;;;1.90;99.90;;;;;;5092907;28;20028;-81
2023/02/12 08:13:52;;;;;;;1999.90;999.90;;;2.00;99.90;;;;;;5074772;28;20020;-73
2023/02/12 08:16:20;;;;;;;1999.90;999.90;;;2.00;99.90;;;;;;5092711;28;20035;-73
2023/02/12 08:18:47;;;;;;;1999.90;999.90;;;2.10;99.90;;;;;;5092586;28;20035;-73
2023/02/12 08:21:21;;;;;;;1999.90;999.90;;;2.30;99.90;;;;;;5074545;28;20032;-73
2023/02/12 08:23:50;;;;;;;1999.90;999.90;;;2.50;99.90;;;;;;5092697;28;20035;-80
2023/02/12 08:26:22;;;;;;;1999.90;999.90;;;2.90;99.90;;;;;;5092435;28;20075;-73
2023/02/12 08:29:01;;;;;;;1999.90;999.90;;;4.20;99.90;;;;;;5092439;28;20020;-73
2023/02/12 08:31:31;;;;;;;1999.90;999.90;;;5.90;99.90;;;;;;5080696;28;20500;-81
2023/02/12 08:33:58;;;;;;;1999.90;999.90;;;7.40;99.90;;;;;;5072368;28;20040;-82
2023/02/12 08:36:25;;;;;;;1999.90;999.90;;;8.80;99.90;;;;;;5072199;28;20032;-73
2023/02/12 08:38:52;;;;;;;1999.90;999.90;;;9.40;99.90;;;;;;5088518;28;20016;-74
2023/02/12 08:41:23;;;;;;;1999.90;999.90;;;9.40;99.90;;;;;;5092198;28;20024;-82
2023/02/12 08:43:51;;;;;;;1999.90;999.90;;;7.90;99.90;;;;;;5092305;28;20024;-83
2023/02/12 08:46:22;;;;;;;1999.90;999.90;;;6.80;99.90;;;;;;5091518;28;20052;-82
2023/02/12 08:48:58;;;;;;;1999.90;999.90;;;6.00;99.90;;;;;;5092172;28;20021;-73
2023/02/12 08:51:31;;;;;;;1999.90;999.90;;;5.60;99.90;;;;;;5092497;28;20081;-74
2023/02/12 08:54:02;;;;;;;1999.90;999.90;;;5.40;99.90;;;;;;5092262;28;20024;-82
2023/02/12 08:56:30;;;;;;;1999.90;999.90;;;5.40;99.90;;;;;;5074041;28;20032;-82
2023/02/12 08:58:57;;;;;;;1999.90;999.90;;;5.80;99.90;;;;;;5091920;28;20113;-82
2023/02/12 09:01:25;;;;;;;1999.90;999.90;;;6.20;99.90;;;;;;5092514;28;20028;-74
2023/02/12 09:03:51;;;;;;;1999.90;999.90;;;6.60;99.90;;;;;;5092299;28;20031;-73
2023/02/12 09:06:19;;;;;;;1999.90;999.90;;;6.70;99.90;;;;;;5091371;28;20032;-83
2023/02/12 09:08:45;;;;;;;1999.90;999.90;;;6.80;99.90;;;;;;5092051;28;20055;-82
2023/02/12 09:11:16;;;;;;;1999.90;999.90;;;6.80;99.90;;;;;;5092049;28;20066;-73
2023/02/12 09:13:44;;;;;;;1999.90;999.90;;;6.60;99.90;;;;;;5092227;28;20069;-74
2023/02/12 09:16:10;;;;;;;1999.90;999.90;;;6.40;99.90;;;;;;5091975;28;20028;-74
2023/02/12 09:18:36;;;;;;;1999.90;999.90;;;6.30;99.90;;;;;;5091922;28;20511;-73
2023/02/12 09:21:05;;;;;;;1999.90;999.90;;;6.40;99.90;;;;;;5091766;28;20059;-83
2023/02/12 09:23:31;;;;;;;1999.90;999.90;;;6.40;99.90;;;;;;5092217;28;20027;-83
2023/02/12 09:25:57;;;;;;;1999.90;999.90;;;6.50;99.90;;;;;;5091946;28;20145;-83
2023/02/12 09:28:23;;;;;;;1999.90;999.90;;;6.70;99.90;;;;;;5091904;28;20169;-73
2023/02/12 09:30:49;;;;;;;1999.90;999.90;;;6.80;99.90;;;;;;5085229;28;20504;-74
2023/02/12 09:33:15;;;;;;;1999.90;999.90;;;7.00;99.90;;;;;;5070294;28;20028;-82
2023/02/12 09:35:40;;;;;;;1999.90;999.90;;;7.10;99.90;;;;;;5071776;28;20096;-82
2023/02/12 09:38:07;;;;;;;1999.90;999.90;;;7.30;99.90;;;;;;5082031;28;20023;-82
2023/02/12 09:41:00;;;;;;;1999.90;999.90;;;7.50;99.90;;;;;;5091825;28;20042;-73
2023/02/12 09:43:41;;;;;;;1999.90;999.90;;;8.00;99.90;;;;;;5091846;28;20081;-74
2023/02/12 09:46:20;;;;;;;1999.90;999.90;;;8.60;99.90;;;;;;5080866;28;20052;-83
2023/02/12 09:49:04;;;;;;;1999.90;999.90;;;9.00;99.90;;;;;;5071576;28;20493;-83
2023/02/12 09:51:30;;;;;;;1999.90;999.90;;;9.00;99.90;;;;;;5071668;28;20032;-80
2023/02/12 09:54:18;;;;;;;1999.90;999.90;;;9.00;99.90;;;;;;5071524;28;20028;-73
2023/02/12 09:56:48;;;;;;;1999.90;999.90;;;8.80;99.90;;;;;;5071117;28;20029;-74
2023/02/12 09:59:42;;;;;;;1999.90;999.90;;;8.70;99.90;;;;;;5074318;28;20025;-84
2023/02/12 10:02:19;;;;;;;1999.90;999.90;;;8.60;99.90;;;;;;5075084;28;20021;-73
2023/02/12 10:04:46;;;;;;;1999.90;999.90;;;8.50;99.90;;;;;;5074871;28;20021;-84
2023/02/12 10:07:43;;;;;;;1999.90;999.90;;;8.50;99.90;;;;;;5074627;28;20043;-74
2023/02/12 10:10:28;;;;;;;1999.90;999.90;;;8.40;99.90;;;;;;5074635;28;20489;-74
2023/02/12 10:13:19;;;;;;;1999.90;999.90;;;8.40;99.90;;;;;;5074669;28;20024;-82
2023/02/12 10:16:07;;;;;;;1999.90;999.90;;;8.50;99.90;;;;;;5074762;28;20425;-73
2023/02/12 10:19:07;;;;;;;1999.90;999.90;;;8.60;99.90;;;;;;5072690;28;20021;-74
2023/02/12 10:21:57;;;;;;;1999.90;999.90;;;8.70;99.90;;;;;;5074328;28;20020;-83
2023/02/12 10:24:51;;;;;;;1999.90;999.90;;;8.70;99.90;;;;;;5074439;28;20032;-73
2023/02/12 10:27:33;;;;;;;1999.90;999.90;;;8.60;99.90;;;;;;5074356;28;20029;-83
2023/02/12 10:29:59;;;;;;;1999.90;999.90;;;8.70;99.90;;;;;;5074661;28;20064;-83
2023/02/12 10:32:33;;;;;;;1999.90;999.90;;;8.90;99.90;;;;;;5076362;28;20020;-73
2023/02/12 10:34:59;;;;;;;1999.90;999.90;;;9.00;99.90;;;;;;5094305;28;20099;-73
2023/02/12 10:37:51;;;;;;;1999.90;999.90;;;9.10;99.90;;;;;;5094203;28;20109;-74
2023/02/12 10:40:29;;;;;;;1999.90;999.90;;;9.20;99.90;;;;;;5065262;28;20162;-83
2023/02/12 10:42:59;;;;;;;1999.90;999.90;;;9.10;99.90;;;;;;5094296;28;20028;-82
2023/02/12 10:45:38;;;;;;;1999.90;999.90;;;9.20;99.90;;;;;;5094463;28;20043;-73
2023/02/12 10:48:06;;;;;;;1999.90;999.90;;;9.20;99.90;;;;;;5093542;28;20039;-73
2023/02/12 10:50:44;;;;;;;1999.90;999.90;;;9.20;99.90;;;;;;5094089;28;20072;-80
2023/02/12 10:53:24;;;;;;;1999.90;999.90;;;9.30;99.90;;;;;;5075928;28;20103;-83
2023/02/12 10:56:18;;;;;;;1999.90;999.90;;;9.30;99.90;;;;;;5094596;28;20031;-83
2023/02/12 10:58:49;;;;;;;;;;;9.50;99.90;;;;;;5076362;28;20023;-74
2023/02/12 11:01:24;;;;;;;1999.90;999.90;;;9.40;99.90;;;;;;5093954;28;20328;-83
2023/02/12 11:03:51;;;;;;;1999.90;999.90;;;9.60;99.90;;;;;;5093963;28;20373;-83
2023/02/12 11:06:35;;;;;;;1999.90;999.90;;;9.90;99.90;;;;;;5093413;28;20052;-83
2023/02/12 11:09:00;;;;;;;1999.90;999.90;;;9.90;99.90;;;;;;5093385;28;20032;-73
2023/02/12 11:11:35;;;;;;;1999.90;999.90;;;9.90;99.90;;;;;;5094160;28;20020;-73
2023/02/12 11:14:18;;;;;;;1999.90;999.90;;;9.90;99.90;;;;;;5093962;28;20054;-73
2023/02/12 11:16:59;;;;;;;1999.90;999.90;;;10.10;99.90;;;;;;5093811;28;20024;-73
2023/02/12 11:19:30;;;;;;;1999.90;999.90;;;10.30;99.90;;;;;;5094081;28;20024;-73
2023/02/12 11:22:17;;;;;;;1999.90;999.90;;;10.40;99.90;;;;;;5093837;28;20036;-82
2023/02/12 11:24:44;;;;;;;1999.90;999.90;;;10.60;99.90;;;;;;5075485;28;20043;-73
2023/02/12 11:27:18;;;;;;;1999.90;999.90;;;10.80;99.90;;;;;;5093232;28;20107;-73
2023/02/12 11:29:50;;;;;;;1999.90;999.90;;;10.80;99.90;;;;;;5093805;28;20035;-82
2023/02/12 11:32:18;;;;;;;1999.90;999.90;;;10.90;99.90;;;;;;5073156;28;20529;-73
2023/02/12 11:34:46;;;;;;;1999.90;999.90;;;11.00;99.90;;;;;;5055240;28;20024;-82
2023/02/12 11:37:17;;;;;;;1999.90;999.90;;;11.20;99.90;;;;;;5075727;28;20055;-73
2023/02/12 11:39:47;;;;;;;1999.90;999.90;;;11.20;99.90;;;;;;5093625;28;20036;-73
2023/02/12 11:42:19;;;;;;;1999.90;999.90;;;11.10;99.90;;;;;;5093289;28;20016;-82
2023/02/12 11:44:57;;;;;;;1999.90;999.90;;;11.30;99.90;;;;;;5093154;28;20111;-83
2023/02/12 11:47:29;;;;;;;1999.90;999.90;;;11.50;99.90;;;;;;5093245;28;20028;-83
2023/02/12 11:50:13;;;;;;;1999.90;999.90;;;11.60;99.90;;;;;;5093389;28;20020;-73
2023/02/12 11:52:40;;;;;;;1999.90;999.90;;;11.70;99.90;;;;;;5093126;28;20507;-74
2023/02/12 11:55:18;;;;;;;1999.90;999.90;;;11.60;99.90;;;;;;5093203;28;20591;-82
2023/02/12 11:57:46;;;;;;;1999.90;999.90;;;11.80;99.90;;;;;;5092596;28;20028;-82
2023/02/12 12:00:21;;;;;;;1999.90;999.90;;;12.00;99.90;;;;;;5091427;28;20152;-73
2023/02/12 12:02:54;;;;;;;1999.90;999.90;;;11.90;99.90;;;;;;5093002;28;20519;-73
2023/02/12 12:05:24;;;;;;;1999.90;999.90;;;12.00;99.90;;;;;;5092809;28;20066;-73
2023/02/12 12:07:59;;;;;;;1999.90;999.90;;;12.10;99.90;;;;;;5092594;28;20040;-73
2023/02/12 12:10:37;;;;;;;1999.90;999.90;;;12.20;99.90;;;;;;5092594;28;20065;-83
2023/02/12 12:13:10;;;;;;;1999.90;999.90;;;12.40;99.90;;;;;;5092654;28;20028;-73
2023/02/12 12:21:41;;;;;;;1999.90;999.90;;;12.70;99.90;;;;;;5092365;28;20077;-73
2023/02/12 12:24:28;;;;;;;1999.90;999.90;;;12.60;99.90;;;;;;5092930;28;20063;-82
2023/02/12 12:27:13;;;;;;;1999.90;999.90;;;12.60;99.90;;;;;;5092346;28;20020;-73
2023/02/12 12:29:53;;;;;;;1999.90;999.90;;;12.60;99.90;;;;;;5091303;28;20028;-73
2023/02/12 12:32:21;;;;;;;1999.90;999.90;;;12.60;99.90;;;;;;5073447;28;20021;-73
2023/02/12 12:34:47;;;;;;;1999.90;999.90;;;12.60;99.90;;;;;;5072345;28;20096;-82
2023/02/12 12:37:44;;;;;;;1999.90;999.90;;;12.60;99.90;;;;;;5074697;28;20457;-74